Ashotsk, Armenia

4:16 AM AMT on February 09, 2016 (GMT +0400)
Gyumri Shirak Airport | | Change Station
CLOSE
Current Station
Airport
Location: Gyumri Shirak Airport,
Elevation: 5000 ft
Nearby Weather Stations

Elev 5000 ft 40.75 °N, 43.86 °E | Updated 16 minutes ago

Mostly Cloudy
Mostly Cloudy
19 °F
Feels Like 11 °F
N
7
Wind Variable Wind from SW

Today
High -- | Low -- °F
--% Chance of Precip.
Yesterday
High -- | Low -- °F
Precip. -- in
Pressure 30.24 in
Visibility 5.6 miles
Clouds Scattered Clouds 4000 ft
Mostly Cloudy 8300 ft
Windchill 11 °F
Dew Point 14 °F
Humidity 80%
Rainfall 0.00 in
Snow Depth Not available.
8:07 AM 6:31 PM
New Moon, 0% visible
METAR UDSG 090000Z 23003MPS 9000 SCT040 BKN083 M07/M10 Q1024 R02/CLRD70 NOSIG
Pressure 30.24 in
Visibility 5.6 miles
Clouds Scattered Clouds 4000 ft
Mostly Cloudy 8300 ft
Windchill 11 °F
Dew Point 14 °F
Humidity 80%
Rainfall 0.00 in
Snow Depth Not available.
8:07 AM 6:31 PM
New Moon, 0% visible
METAR UDSG 090000Z 23003MPS 9000 SCT040 BKN083 M07/M10 Q1024 R02/CLRD70 NOSIG

10-Day Weather Forecast

Almanac

Astronomy

Feb. 09, 2016 Rise Set
Actual Time
Civil Twilight
Nautical Twilight
Astronomical Twilight
Moon
Length of Visible Light
Length of Day
Tomorrow will be .
, % of the Moon is Illuminated

Today's Extremes

Country Highs Country Lows

Community

WunderPhotos

Upload Photos

1,891,527 photos uploaded!

WunderBlog® & News

Nearby

Air Quality

  Air Quality AQ Index Pollutant
Not available.

Snow Depth

Station Depth Elevation

Earthquake Activity

City Distance Mag. Time & Date
Minimum magnitude displayed is 2.5.

Coastal Water Temperatures

Place Temperature

Stations

Nearby Weather Stations

Station Location Temp. Windchill Dew Point Humidity Wind Precip. Elev Updated Type